createdAt,value
2017-09-25T00:05:34.000Z,21.17
2017-09-25T00:15:34.000Z,21.17
2017-09-25T00:25:34.000Z,21.19
2017-09-25T00:35:34.000Z,21.17
2017-09-25T00:45:34.000Z,21.15
2017-09-25T00:55:34.000Z,21.12
2017-09-25T01:05:34.000Z,21.06
2017-09-25T01:15:34.000Z,20.95
2017-09-25T01:25:34.000Z,20.99
2017-09-25T01:35:34.000Z,21.01
2017-09-25T01:45:34.000Z,21.01
2017-09-25T01:55:34.000Z,21.01
2017-09-25T02:05:34.000Z,21
2017-09-25T02:15:34.000Z,20.97
2017-09-25T02:25:34.000Z,20.95
2017-09-25T02:35:35.000Z,20.9
2017-09-25T02:45:35.000Z,20.9
2017-09-25T02:55:35.000Z,20.9
2017-09-25T03:05:35.000Z,20.87
2017-09-25T03:15:35.000Z,20.82
2017-09-25T03:25:35.000Z,20.76
2017-09-25T03:35:35.000Z,20.76
2017-09-25T03:45:35.000Z,20.75
2017-09-25T03:55:35.000Z,20.78
2017-09-25T04:05:35.000Z,20.76
2017-09-25T04:15:35.000Z,20.71
2017-09-25T04:25:35.000Z,20.7
2017-09-25T04:35:35.000Z,20.64
2017-09-25T04:45:35.000Z,20.69
2017-09-25T04:55:35.000Z,20.65
2017-09-25T05:05:36.000Z,20.69
2017-09-25T05:15:35.000Z,20.64
2017-09-25T05:25:35.000Z,20.63
2017-09-25T05:35:35.000Z,20.65
2017-09-25T05:45:35.000Z,20.62
2017-09-25T05:55:35.000Z,20.58
2017-09-25T06:05:35.000Z,20.61
2017-09-25T06:15:35.000Z,20.62
2017-09-25T06:25:35.000Z,20.6
2017-09-25T06:35:35.000Z,20.67
2017-09-25T06:45:35.000Z,20.6
2017-09-25T06:55:35.000Z,20.59
2017-09-25T07:05:35.000Z,20.65
2017-09-25T07:15:35.000Z,20.68
2017-09-25T07:25:35.000Z,20.64
2017-09-25T07:35:35.000Z,20.75
2017-09-25T07:45:35.000Z,20.87
2017-09-25T07:55:35.000Z,20.9
2017-09-25T08:05:35.000Z,20.71
2017-09-25T08:15:35.000Z,20.68
2017-09-25T08:25:35.000Z,20.76
2017-09-25T08:35:35.000Z,20.82
2017-09-25T08:45:37.000Z,20.83
2017-09-25T08:55:36.000Z,20.94
2017-09-25T09:05:35.000Z,21.02
2017-09-25T09:15:35.000Z,21.1
2017-09-25T09:25:35.000Z,21.17
2017-09-25T09:35:35.000Z,21.17
2017-09-25T09:45:35.000Z,21.16
2017-09-25T09:55:35.000Z,21.21
2017-09-25T10:05:37.000Z,21.26
2017-09-25T10:25:35.000Z,21.35
2017-09-25T10:35:35.000Z,21.36
2017-09-25T10:45:36.000Z,21.57
2017-09-25T10:55:36.000Z,21.62
2017-09-25T11:05:36.000Z,21.62
2017-09-25T11:15:36.000Z,21.59
2017-09-25T11:25:36.000Z,21.55
2017-09-25T11:35:36.000Z,21.68
2017-09-25T11:55:36.000Z,21.69
2017-09-25T12:05:36.000Z,21.73
2017-09-25T12:15:36.000Z,21.84
2017-09-25T12:25:36.000Z,21.73
2017-09-25T12:35:36.000Z,21.8
2017-09-25T12:45:36.000Z,21.86
2017-09-25T12:55:36.000Z,21.94
2017-09-25T13:15:36.000Z,21.9
2017-09-25T13:25:36.000Z,21.92
2017-09-25T13:35:36.000Z,21.84
2017-09-25T13:45:36.000Z,21.76
2017-09-25T13:55:36.000Z,21.86
2017-09-25T14:05:36.000Z,21.84
2017-09-25T14:15:36.000Z,21.82
2017-09-25T14:25:36.000Z,21.77
2017-09-25T14:35:36.000Z,21.78
2017-09-25T14:45:36.000Z,21.65
2017-09-25T14:55:36.000Z,21.39
2017-09-25T15:05:36.000Z,21.42
2017-09-25T15:15:36.000Z,21.42
2017-09-25T15:25:36.000Z,21.28
2017-09-25T15:35:36.000Z,21.64
2017-09-25T15:45:36.000Z,21.62
2017-09-25T15:55:38.000Z,21.59
2017-09-25T16:05:36.000Z,21.68
2017-09-25T16:15:36.000Z,21.82
2017-09-25T16:25:36.000Z,21.86
2017-09-25T16:35:36.000Z,21.87
2017-09-25T16:45:36.000Z,21.88
2017-09-25T16:55:36.000Z,21.7
2017-09-25T17:05:36.000Z,21.59
2017-09-25T17:15:36.000Z,21.68
2017-09-25T17:25:36.000Z,21.47
2017-09-25T17:35:36.000Z,21.41
2017-09-25T17:45:36.000Z,21.4
2017-09-25T17:55:36.000Z,21.33
2017-09-25T18:05:36.000Z,21.29
2017-09-25T18:15:36.000Z,21.27
2017-09-25T18:25:36.000Z,21.25
2017-09-25T18:35:37.000Z,21.3
2017-09-25T18:45:38.000Z,21.37
2017-09-25T18:55:37.000Z,21.41
2017-09-25T19:05:37.000Z,21.58
2017-09-25T19:15:37.000Z,21.47
2017-09-25T19:25:37.000Z,21.48
2017-09-25T19:35:37.000Z,21.55
2017-09-25T19:45:37.000Z,21.64
2017-09-25T19:55:37.000Z,21.7
2017-09-25T20:05:37.000Z,21.73
2017-09-25T20:15:37.000Z,21.74
2017-09-25T20:25:37.000Z,21.72
2017-09-25T20:35:37.000Z,21.72
2017-09-25T20:45:37.000Z,21.67
2017-09-25T20:55:37.000Z,21.62
2017-09-25T21:05:37.000Z,21.58
2017-09-25T21:15:37.000Z,21.52
2017-09-25T21:25:37.000Z,21.5
2017-09-25T21:35:37.000Z,21.46
2017-09-25T21:45:37.000Z,21.44
2017-09-25T21:55:37.000Z,21.4
2017-09-25T22:05:37.000Z,21.37
2017-09-25T22:15:37.000Z,21.34
2017-09-25T22:25:37.000Z,21.29
2017-09-25T22:35:37.000Z,21.27
2017-09-25T22:45:38.000Z,21.25
2017-09-25T22:55:37.000Z,21.22
2017-09-25T23:05:37.000Z,21.18
2017-09-25T23:15:37.000Z,21.14
2017-09-25T23:25:37.000Z,21.11
2017-09-25T23:35:37.000Z,21.08
2017-09-25T23:45:37.000Z,21.05
2017-09-25T23:55:37.000Z,21.02
